sensor_id;sensor_type;location;lat;lon;timestamp;P1;durP1;ratioP1;P2;durP2;ratioP2
44120;SDS011;29783;52.504;13.478;2023-06-24T00:00:06;12.57;;;8.70;;
44120;SDS011;29783;52.504;13.478;2023-06-24T00:02:34;12.57;;;8.80;;
44120;SDS011;29783;52.504;13.478;2023-06-24T00:05:04;15.32;;;9.45;;
44120;SDS011;29783;52.504;13.478;2023-06-24T00:07:31;11.45;;;8.98;;
44120;SDS011;29783;52.504;13.478;2023-06-24T00:10:01;12.88;;;9.45;;
44120;SDS011;29783;52.504;13.478;2023-06-24T00:12:28;11.00;;;9.07;;
44120;SDS011;29783;52.504;13.478;2023-06-24T00:14:54;16.73;;;10.25;;
44120;SDS011;29783;52.504;13.478;2023-06-24T00:17:20;17.42;;;10.55;;
44120;SDS011;29783;52.504;13.478;2023-06-24T00:19:47;17.90;;;11.32;;
44120;SDS011;29783;52.504;13.478;2023-06-24T00:22:13;19.13;;;10.82;;
44120;SDS011;29783;52.504;13.478;2023-06-24T00:24:39;21.45;;;11.00;;
44120;SDS011;29783;52.504;13.478;2023-06-24T00:27:07;16.00;;;10.73;;
44120;SDS011;29783;52.504;13.478;2023-06-24T00:29:34;15.88;;;10.55;;
44120;SDS011;29783;52.504;13.478;2023-06-24T00:32:00;17.58;;;11.00;;
44120;SDS011;29783;52.504;13.478;2023-06-24T00:34:26;22.23;;;11.90;;
44120;SDS011;29783;52.504;13.478;2023-06-24T00:36:54;18.05;;;11.35;;
44120;SDS011;29783;52.504;13.478;2023-06-24T00:39:20;14.18;;;12.63;;
44120;SDS011;29783;52.504;13.478;2023-06-24T00:41:47;19.27;;;12.55;;
44120;SDS011;29783;52.504;13.478;2023-06-24T00:44:13;22.38;;;15.20;;
44120;SDS011;29783;52.504;13.478;2023-06-24T00:46:41;17.90;;;13.70;;
44120;SDS011;29783;52.504;13.478;2023-06-24T00:49:07;19.73;;;15.10;;
44120;SDS011;29783;52.504;13.478;2023-06-24T00:51:33;24.83;;;16.67;;
44120;SDS011;29783;52.504;13.478;2023-06-24T00:54:01;20.38;;;17.13;;
44120;SDS011;29783;52.504;13.478;2023-06-24T00:56:28;27.48;;;18.45;;
44120;SDS011;29783;52.504;13.478;2023-06-24T00:59:00;29.58;;;19.05;;
44120;SDS011;29783;52.504;13.478;2023-06-24T01:01:27;26.10;;;19.40;;
44120;SDS011;29783;52.504;13.478;2023-06-24T01:03:57;31.70;;;21.90;;
44120;SDS011;29783;52.504;13.478;2023-06-24T01:06:23;29.17;;;19.98;;
44120;SDS011;29783;52.504;13.478;2023-06-24T01:08:49;28.50;;;20.33;;
44120;SDS011;29783;52.504;13.478;2023-06-24T01:11:16;26.60;;;20.00;;
44120;SDS011;29783;52.504;13.478;2023-06-24T01:13:42;21.95;;;19.13;;
44120;SDS011;29783;52.504;13.478;2023-06-24T01:16:10;31.27;;;20.88;;
44120;SDS011;29783;52.504;13.478;2023-06-24T01:18:40;25.65;;;19.35;;
44120;SDS011;29783;52.504;13.478;2023-06-24T01:21:10;21.40;;;17.67;;
44120;SDS011;29783;52.504;13.478;2023-06-24T01:36:54;18.13;;;16.20;;
44120;SDS011;29783;52.504;13.478;2023-06-24T01:39:21;21.05;;;15.98;;
44120;SDS011;29783;52.504;13.478;2023-06-24T01:41:51;20.52;;;15.55;;
44120;SDS011;29783;52.504;13.478;2023-06-24T01:44:20;20.52;;;14.65;;
44120;SDS011;29783;52.504;13.478;2023-06-24T01:46:48;27.30;;;14.85;;
44120;SDS011;29783;52.504;13.478;2023-06-24T01:49:15;16.15;;;14.38;;
44120;SDS011;29783;52.504;13.478;2023-06-24T01:51:42;22.00;;;14.23;;
44120;SDS011;29783;52.504;13.478;2023-06-24T01:54:11;15.25;;;13.57;;
44120;SDS011;29783;52.504;13.478;2023-06-24T01:56:39;16.55;;;12.68;;
44120;SDS011;29783;52.504;13.478;2023-06-24T01:59:06;16.50;;;12.25;;
44120;SDS011;29783;52.504;13.478;2023-06-24T02:01:33;19.05;;;12.43;;
44120;SDS011;29783;52.504;13.478;2023-06-24T02:04:02;14.05;;;10.77;;
44120;SDS011;29783;52.504;13.478;2023-06-24T02:06:29;17.75;;;11.55;;
44120;SDS011;29783;52.504;13.478;2023-06-24T02:08:56;15.45;;;11.88;;
44120;SDS011;29783;52.504;13.478;2023-06-24T02:11:23;14.98;;;11.68;;
44120;SDS011;29783;52.504;13.478;2023-06-24T02:13:50;13.77;;;11.80;;
44120;SDS011;29783;52.504;13.478;2023-06-24T02:16:17;14.73;;;11.32;;
44120;SDS011;29783;52.504;13.478;2023-06-24T02:18:44;17.38;;;11.68;;
44120;SDS011;29783;52.504;13.478;2023-06-24T02:21:10;16.83;;;11.70;;
44120;SDS011;29783;52.504;13.478;2023-06-24T02:23:37;17.65;;;11.77;;
44120;SDS011;29783;52.504;13.478;2023-06-24T02:26:04;17.75;;;11.63;;
44120;SDS011;29783;52.504;13.478;2023-06-24T02:28:33;17.38;;;11.45;;
44120;SDS011;29783;52.504;13.478;2023-06-24T02:30:59;18.35;;;11.13;;
44120;SDS011;29783;52.504;13.478;2023-06-24T02:33:25;14.23;;;10.70;;
44120;SDS011;29783;52.504;13.478;2023-06-24T02:35:54;16.50;;;10.25;;
44120;SDS011;29783;52.504;13.478;2023-06-24T02:38:20;15.10;;;11.63;;
44120;SDS011;29783;52.504;13.478;2023-06-24T02:40:47;13.10;;;10.88;;
44120;SDS011;29783;52.504;13.478;2023-06-24T02:43:14;13.10;;;10.88;;
44120;SDS011;29783;52.504;13.478;2023-06-24T02:45:40;13.73;;;10.57;;
44120;SDS011;29783;52.504;13.478;2023-06-24T02:48:07;13.27;;;10.70;;
44120;SDS011;29783;52.504;13.478;2023-06-24T02:50:34;14.45;;;10.77;;
44120;SDS011;29783;52.504;13.478;2023-06-24T02:53:01;18.75;;;11.43;;
44120;SDS011;29783;52.504;13.478;2023-06-24T02:55:28;18.02;;;12.15;;
44120;SDS011;29783;52.504;13.478;2023-06-24T02:57:55;18.15;;;11.57;;
44120;SDS011;29783;52.504;13.478;2023-06-24T03:00:22;17.80;;;10.75;;
44120;SDS011;29783;52.504;13.478;2023-06-24T03:02:48;14.38;;;11.20;;
44120;SDS011;29783;52.504;13.478;2023-06-24T03:05:16;13.15;;;10.90;;
44120;SDS011;29783;52.504;13.478;2023-06-24T03:07:42;19.42;;;11.32;;
44120;SDS011;29783;52.504;13.478;2023-06-24T03:10:08;21.88;;;11.20;;
44120;SDS011;29783;52.504;13.478;2023-06-24T03:12:35;21.27;;;11.50;;
44120;SDS011;29783;52.504;13.478;2023-06-24T03:15:01;16.42;;;10.05;;
44120;SDS011;29783;52.504;13.478;2023-06-24T03:17:28;13.68;;;11.18;;
44120;SDS011;29783;52.504;13.478;2023-06-24T03:19:54;16.98;;;10.85;;
44120;SDS011;29783;52.504;13.478;2023-06-24T03:22:21;17.83;;;10.45;;
44120;SDS011;29783;52.504;13.478;2023-06-24T03:24:47;12.48;;;10.70;;
44120;SDS011;29783;52.504;13.478;2023-06-24T03:27:14;16.85;;;10.98;;
44120;SDS011;29783;52.504;13.478;2023-06-24T03:29:40;11.25;;;8.90;;
44120;SDS011;29783;52.504;13.478;2023-06-24T03:32:06;14.35;;;9.77;;
44120;SDS011;29783;52.504;13.478;2023-06-24T03:34:33;17.02;;;10.80;;
44120;SDS011;29783;52.504;13.478;2023-06-24T03:36:59;16.23;;;10.30;;
44120;SDS011;29783;52.504;13.478;2023-06-24T03:39:25;15.20;;;9.70;;
44120;SDS011;29783;52.504;13.478;2023-06-24T03:41:51;16.13;;;9.55;;
44120;SDS011;29783;52.504;13.478;2023-06-24T03:44:17;14.98;;;10.18;;
44120;SDS011;29783;52.504;13.478;2023-06-24T03:46:45;18.33;;;10.35;;
44120;SDS011;29783;52.504;13.478;2023-06-24T03:49:11;12.07;;;10.65;;
44120;SDS011;29783;52.504;13.478;2023-06-24T03:51:36;13.05;;;10.27;;
44120;SDS011;29783;52.504;13.478;2023-06-24T03:54:02;16.98;;;10.38;;
44120;SDS011;29783;52.504;13.478;2023-06-24T03:56:28;12.90;;;9.27;;
44120;SDS011;29783;52.504;13.478;2023-06-24T03:58:54;13.13;;;9.77;;
44120;SDS011;29783;52.504;13.478;2023-06-24T04:01:21;15.70;;;9.95;;
44120;SDS011;29783;52.504;13.478;2023-06-24T04:03:48;13.27;;;9.60;;
44120;SDS011;29783;52.504;13.478;2023-06-24T04:06:14;17.65;;;10.98;;
44120;SDS011;29783;52.504;13.478;2023-06-24T04:08:40;21.88;;;10.77;;
44120;SDS011;29783;52.504;13.478;2023-06-24T04:11:08;19.23;;;10.77;;
44120;SDS011;29783;52.504;13.478;2023-06-24T04:13:36;13.82;;;10.05;;
44120;SDS011;29783;52.504;13.478;2023-06-24T04:16:02;15.50;;;11.27;;
44120;SDS011;29783;52.504;13.478;2023-06-24T04:18:28;19.98;;;11.70;;
44120;SDS011;29783;52.504;13.478;2023-06-24T04:20:54;15.60;;;11.23;;
44120;SDS011;29783;52.504;13.478;2023-06-24T04:23:21;15.63;;;11.13;;
44120;SDS011;29783;52.504;13.478;2023-06-24T04:25:47;15.48;;;12.20;;
44120;SDS011;29783;52.504;13.478;2023-06-24T04:28:13;15.07;;;10.75;;
44120;SDS011;29783;52.504;13.478;2023-06-24T04:30:39;18.17;;;12.23;;
44120;SDS011;29783;52.504;13.478;2023-06-24T04:33:05;16.52;;;10.18;;
44120;SDS011;29783;52.504;13.478;2023-06-24T04:35:31;12.73;;;10.98;;
44120;SDS011;29783;52.504;13.478;2023-06-24T04:37:57;22.38;;;11.27;;
44120;SDS011;29783;52.504;13.478;2023-06-24T04:40:23;16.70;;;11.43;;
44120;SDS011;29783;52.504;13.478;2023-06-24T04:42:49;12.07;;;9.30;;
44120;SDS011;29783;52.504;13.478;2023-06-24T04:45:16;19.40;;;11.90;;
44120;SDS011;29783;52.504;13.478;2023-06-24T04:47:42;21.65;;;11.82;;
44120;SDS011;29783;52.504;13.478;2023-06-24T04:50:08;13.07;;;9.52;;
44120;SDS011;29783;52.504;13.478;2023-06-24T04:52:35;23.20;;;11.38;;
44120;SDS011;29783;52.504;13.478;2023-06-24T04:55:01;12.00;;;10.77;;
44120;SDS011;29783;52.504;13.478;2023-06-24T04:57:27;17.85;;;10.40;;
44120;SDS011;29783;52.504;13.478;2023-06-24T04:59:54;22.75;;;11.18;;
44120;SDS011;29783;52.504;13.478;2023-06-24T05:02:20;14.63;;;9.35;;
44120;SDS011;29783;52.504;13.478;2023-06-24T05:04:46;13.55;;;10.23;;
44120;SDS011;29783;52.504;13.478;2023-06-24T05:07:12;11.27;;;9.13;;
44120;SDS011;29783;52.504;13.478;2023-06-24T05:09:38;15.68;;;9.98;;
44120;SDS011;29783;52.504;13.478;2023-06-24T05:12:04;18.77;;;10.65;;
44120;SDS011;29783;52.504;13.478;2023-06-24T05:14:30;19.73;;;10.57;;
44120;SDS011;29783;52.504;13.478;2023-06-24T05:16:57;15.13;;;10.80;;
44120;SDS011;29783;52.504;13.478;2023-06-24T05:19:22;12.13;;;8.93;;
44120;SDS011;29783;52.504;13.478;2023-06-24T05:21:48;17.85;;;10.02;;
44120;SDS011;29783;52.504;13.478;2023-06-24T05:24:14;15.68;;;10.15;;
44120;SDS011;29783;52.504;13.478;2023-06-24T05:26:40;13.15;;;9.82;;
44120;SDS011;29783;52.504;13.478;2023-06-24T05:29:06;15.25;;;9.27;;
44120;SDS011;29783;52.504;13.478;2023-06-24T05:31:35;11.55;;;9.15;;
44120;SDS011;29783;52.504;13.478;2023-06-24T05:34:01;18.92;;;10.18;;
44120;SDS011;29783;52.504;13.478;2023-06-24T05:36:27;13.52;;;9.27;;
44120;SDS011;29783;52.504;13.478;2023-06-24T05:38:53;15.68;;;9.18;;
44120;SDS011;29783;52.504;13.478;2023-06-24T05:41:19;19.45;;;9.10;;
44120;SDS011;29783;52.504;13.478;2023-06-24T05:43:45;20.35;;;8.32;;
44120;SDS011;29783;52.504;13.478;2023-06-24T05:46:11;14.02;;;8.95;;
44120;SDS011;29783;52.504;13.478;2023-06-24T05:48:37;16.67;;;9.15;;
44120;SDS011;29783;52.504;13.478;2023-06-24T05:51:03;16.60;;;8.63;;
44120;SDS011;29783;52.504;13.478;2023-06-24T05:53:29;11.73;;;8.75;;
44120;SDS011;29783;52.504;13.478;2023-06-24T05:55:57;15.23;;;8.38;;
44120;SDS011;29783;52.504;13.478;2023-06-24T05:58:23;15.50;;;8.63;;
44120;SDS011;29783;52.504;13.478;2023-06-24T06:00:50;12.05;;;8.68;;
44120;SDS011;29783;52.504;13.478;2023-06-24T06:03:16;13.55;;;7.38;;
44120;SDS011;29783;52.504;13.478;2023-06-24T06:05:42;12.88;;;7.72;;
44120;SDS011;29783;52.504;13.478;2023-06-24T06:08:08;14.70;;;8.52;;
44120;SDS011;29783;52.504;13.478;2023-06-24T06:10:34;10.43;;;8.15;;
44120;SDS011;29783;52.504;13.478;2023-06-24T06:13:00;16.70;;;7.95;;
44120;SDS011;29783;52.504;13.478;2023-06-24T06:15:26;16.92;;;7.63;;
44120;SDS011;29783;52.504;13.478;2023-06-24T06:17:52;14.02;;;8.15;;
44120;SDS011;29783;52.504;13.478;2023-06-24T06:20:18;10.80;;;7.30;;
44120;SDS011;29783;52.504;13.478;2023-06-24T06:22:44;13.52;;;8.55;;
44120;SDS011;29783;52.504;13.478;2023-06-24T06:25:10;12.10;;;7.90;;
44120;SDS011;29783;52.504;13.478;2023-06-24T06:27:36;19.05;;;7.80;;
44120;SDS011;29783;52.504;13.478;2023-06-24T06:30:03;11.05;;;6.90;;
44120;SDS011;29783;52.504;13.478;2023-06-24T06:32:29;13.50;;;6.47;;
44120;SDS011;29783;52.504;13.478;2023-06-24T06:34:55;10.30;;;7.38;;
44120;SDS011;29783;52.504;13.478;2023-06-24T06:37:21;10.07;;;7.03;;
44120;SDS011;29783;52.504;13.478;2023-06-24T06:39:47;11.90;;;6.78;;
44120;SDS011;29783;52.504;13.478;2023-06-24T06:42:13;14.13;;;6.90;;
44120;SDS011;29783;52.504;13.478;2023-06-24T06:44:39;14.98;;;7.18;;
44120;SDS011;29783;52.504;13.478;2023-06-24T06:47:05;13.38;;;7.15;;
44120;SDS011;29783;52.504;13.478;2023-06-24T06:49:31;12.65;;;6.72;;
44120;SDS011;29783;52.504;13.478;2023-06-24T06:51:57;9.95;;;7.18;;
44120;SDS011;29783;52.504;13.478;2023-06-24T06:54:23;9.63;;;6.25;;
44120;SDS011;29783;52.504;13.478;2023-06-24T06:56:52;12.57;;;6.78;;
44120;SDS011;29783;52.504;13.478;2023-06-24T06:59:18;17.27;;;6.25;;
44120;SDS011;29783;52.504;13.478;2023-06-24T07:01:44;13.15;;;6.30;;
44120;SDS011;29783;52.504;13.478;2023-06-24T07:04:10;13.50;;;7.18;;
44120;SDS011;29783;52.504;13.478;2023-06-24T07:06:36;8.73;;;6.63;;
44120;SDS011;29783;52.504;13.478;2023-06-24T07:09:02;11.50;;;6.03;;
44120;SDS011;29783;52.504;13.478;2023-06-24T07:11:28;10.90;;;6.50;;
44120;SDS011;29783;52.504;13.478;2023-06-24T07:13:54;13.88;;;7.13;;
44120;SDS011;29783;52.504;13.478;2023-06-24T07:16:20;12.27;;;6.30;;
44120;SDS011;29783;52.504;13.478;2023-06-24T07:18:46;11.00;;;6.10;;
44120;SDS011;29783;52.504;13.478;2023-06-24T07:21:12;10.70;;;6.05;;
44120;SDS011;29783;52.504;13.478;2023-06-24T07:23:38;13.20;;;6.57;;
44120;SDS011;29783;52.504;13.478;2023-06-24T07:26:05;9.40;;;6.43;;
44120;SDS011;29783;52.504;13.478;2023-06-24T07:28:31;9.77;;;6.15;;
44120;SDS011;29783;52.504;13.478;2023-06-24T07:30:57;13.80;;;5.68;;
44120;SDS011;29783;52.504;13.478;2023-06-24T07:33:23;8.00;;;5.45;;
44120;SDS011;29783;52.504;13.478;2023-06-24T07:35:49;11.63;;;5.57;;
44120;SDS011;29783;52.504;13.478;2023-06-24T07:38:15;7.65;;;5.20;;
44120;SDS011;29783;52.504;13.478;2023-06-24T07:40:41;10.35;;;5.03;;
44120;SDS011;29783;52.504;13.478;2023-06-24T07:43:07;7.50;;;5.10;;
44120;SDS011;29783;52.504;13.478;2023-06-24T07:45:33;7.25;;;4.63;;
44120;SDS011;29783;52.504;13.478;2023-06-24T07:47:58;4.15;;;3.75;;
44120;SDS011;29783;52.504;13.478;2023-06-24T07:50:24;7.95;;;4.70;;
44120;SDS011;29783;52.504;13.478;2023-06-24T07:52:50;6.82;;;4.43;;
44120;SDS011;29783;52.504;13.478;2023-06-24T07:55:16;9.75;;;4.10;;
44120;SDS011;29783;52.504;13.478;2023-06-24T07:57:45;4.70;;;3.50;;
44120;SDS011;29783;52.504;13.478;2023-06-24T08:00:12;5.97;;;3.78;;
44120;SDS011;29783;52.504;13.478;2023-06-24T08:02:38;6.13;;;3.80;;
44120;SDS011;29783;52.504;13.478;2023-06-24T08:05:04;9.13;;;3.72;;
44120;SDS011;29783;52.504;13.478;2023-06-24T08:07:30;6.70;;;3.80;;
44120;SDS011;29783;52.504;13.478;2023-06-24T08:09:56;5.43;;;3.55;;
44120;SDS011;29783;52.504;13.478;2023-06-24T08:12:22;6.47;;;3.85;;
44120;SDS011;29783;52.504;13.478;2023-06-24T08:14:49;8.18;;;3.53;;
44120;SDS011;29783;52.504;13.478;2023-06-24T08:17:14;5.00;;;3.50;;
44120;SDS011;29783;52.504;13.478;2023-06-24T08:19:40;5.50;;;3.30;;
44120;SDS011;29783;52.504;13.478;2023-06-24T08:22:07;7.18;;;3.08;;
44120;SDS011;29783;52.504;13.478;2023-06-24T08:24:33;7.32;;;3.92;;
44120;SDS011;29783;52.504;13.478;2023-06-24T08:26:59;6.70;;;3.22;;
44120;SDS011;29783;52.504;13.478;2023-06-24T08:32:09;3.33;;;2.78;;
44120;SDS011;29783;52.504;13.478;2023-06-24T08:34:35;6.05;;;3.15;;
44120;SDS011;29783;52.504;13.478;2023-06-24T08:37:01;4.97;;;3.40;;
44120;SDS011;29783;52.504;13.478;2023-06-24T08:39:27;7.20;;;3.65;;
44120;SDS011;29783;52.504;13.478;2023-06-24T08:41:53;5.78;;;3.63;;
44120;SDS011;29783;52.504;13.478;2023-06-24T08:44:19;8.18;;;4.20;;
44120;SDS011;29783;52.504;13.478;2023-06-24T08:46:45;4.40;;;3.13;;
44120;SDS011;29783;52.504;13.478;2023-06-24T08:51:46;9.32;;;3.42;;
44120;SDS011;29783;52.504;13.478;2023-06-24T08:54:14;7.40;;;3.30;;
44120;SDS011;29783;52.504;13.478;2023-06-24T08:56:40;8.65;;;3.35;;
44120;SDS011;29783;52.504;13.478;2023-06-24T08:59:08;4.35;;;3.50;;
44120;SDS011;29783;52.504;13.478;2023-06-24T09:01:34;13.48;;;3.42;;
44120;SDS011;29783;52.504;13.478;2023-06-24T09:04:00;16.35;;;4.57;;
44120;SDS011;29783;52.504;13.478;2023-06-24T09:06:26;6.38;;;3.47;;
44120;SDS011;29783;52.504;13.478;2023-06-24T09:08:53;9.75;;;3.42;;
44120;SDS011;29783;52.504;13.478;2023-06-24T09:11:25;5.35;;;3.42;;
44120;SDS011;29783;52.504;13.478;2023-06-24T09:13:57;6.00;;;3.03;;
44120;SDS011;29783;52.504;13.478;2023-06-24T09:16:23;5.63;;;3.67;;
44120;SDS011;29783;52.504;13.478;2023-06-24T09:18:50;10.50;;;3.30;;
44120;SDS011;29783;52.504;13.478;2023-06-24T09:21:26;7.45;;;3.40;;
44120;SDS011;29783;52.504;13.478;2023-06-24T09:23:53;8.80;;;3.22;;
44120;SDS011;29783;52.504;13.478;2023-06-24T09:26:19;5.05;;;2.80;;
44120;SDS011;29783;52.504;13.478;2023-06-24T09:28:48;6.45;;;3.30;;
44120;SDS011;29783;52.504;13.478;2023-06-24T09:31:15;9.77;;;3.58;;
44120;SDS011;29783;52.504;13.478;2023-06-24T09:33:41;5.43;;;2.97;;
44120;SDS011;29783;52.504;13.478;2023-06-24T09:36:07;10.35;;;3.08;;
44120;SDS011;29783;52.504;13.478;2023-06-24T09:38:37;7.50;;;3.13;;
44120;SDS011;29783;52.504;13.478;2023-06-24T09:41:06;13.48;;;3.72;;
44120;SDS011;29783;52.504;13.478;2023-06-24T09:43:36;4.68;;;2.70;;
44120;SDS011;29783;52.504;13.478;2023-06-24T09:46:04;4.40;;;3.10;;
44120;SDS011;29783;52.504;13.478;2023-06-24T09:48:30;4.93;;;3.38;;
44120;SDS011;29783;52.504;13.478;2023-06-24T09:51:00;9.40;;;3.17;;
44120;SDS011;29783;52.504;13.478;2023-06-24T09:53:29;4.82;;;2.65;;
44120;SDS011;29783;52.504;13.478;2023-06-24T09:55:56;4.35;;;3.00;;
44120;SDS011;29783;52.504;13.478;2023-06-24T09:58:22;6.32;;;2.80;;
44120;SDS011;29783;52.504;13.478;2023-06-24T10:00:49;4.97;;;2.55;;
44120;SDS011;29783;52.504;13.478;2023-06-24T10:03:16;16.80;;;2.97;;
44120;SDS011;29783;52.504;13.478;2023-06-24T10:05:42;7.40;;;3.20;;
44120;SDS011;29783;52.504;13.478;2023-06-24T10:08:08;7.97;;;2.78;;
44120;SDS011;29783;52.504;13.478;2023-06-24T10:10:34;6.47;;;2.45;;
44120;SDS011;29783;52.504;13.478;2023-06-24T10:13:00;6.47;;;2.90;;
44120;SDS011;29783;52.504;13.478;2023-06-24T10:15:27;3.75;;;2.70;;
44120;SDS011;29783;52.504;13.478;2023-06-24T10:17:53;6.20;;;3.22;;
44120;SDS011;29783;52.504;13.478;2023-06-24T10:20:25;3.58;;;2.35;;
44120;SDS011;29783;52.504;13.478;2023-06-24T10:22:54;5.57;;;2.67;;
44120;SDS011;29783;52.504;13.478;2023-06-24T10:25:20;5.75;;;2.30;;
44120;SDS011;29783;52.504;13.478;2023-06-24T10:27:47;6.38;;;2.50;;
44120;SDS011;29783;52.504;13.478;2023-06-24T10:30:17;3.20;;;2.28;;
44120;SDS011;29783;52.504;13.478;2023-06-24T10:32:44;9.05;;;2.15;;
44120;SDS011;29783;52.504;13.478;2023-06-24T10:35:27;5.13;;;2.42;;
44120;SDS011;29783;52.504;13.478;2023-06-24T10:40:33;4.20;;;2.45;;
44120;SDS011;29783;52.504;13.478;2023-06-24T10:43:01;5.70;;;2.05;;
44120;SDS011;29783;52.504;13.478;2023-06-24T10:45:27;7.68;;;2.60;;
44120;SDS011;29783;52.504;13.478;2023-06-24T10:47:53;3.22;;;2.30;;
44120;SDS011;29783;52.504;13.478;2023-06-24T10:50:21;4.90;;;2.20;;
44120;SDS011;29783;52.504;13.478;2023-06-24T10:52:51;7.28;;;2.45;;
44120;SDS011;29783;52.504;13.478;2023-06-24T10:55:20;8.38;;;2.63;;
44120;SDS011;29783;52.504;13.478;2023-06-24T10:57:47;5.28;;;2.35;;
44120;SDS011;29783;52.504;13.478;2023-06-24T11:00:13;17.48;;;2.97;;
44120;SDS011;29783;52.504;13.478;2023-06-24T11:02:40;8.65;;;2.70;;
44120;SDS011;29783;52.504;13.478;2023-06-24T11:05:06;4.18;;;2.47;;
44120;SDS011;29783;52.504;13.478;2023-06-24T11:07:36;13.00;;;2.65;;
44120;SDS011;29783;52.504;13.478;2023-06-24T11:10:04;4.60;;;2.45;;
44120;SDS011;29783;52.504;13.478;2023-06-24T11:12:31;12.88;;;2.35;;
44120;SDS011;29783;52.504;13.478;2023-06-24T11:14:57;4.43;;;2.70;;
44120;SDS011;29783;52.504;13.478;2023-06-24T11:17:24;4.40;;;2.50;;
44120;SDS011;29783;52.504;13.478;2023-06-24T11:19:52;7.22;;;3.10;;
44120;SDS011;29783;52.504;13.478;2023-06-24T11:22:21;4.63;;;2.55;;
44120;SDS011;29783;52.504;13.478;2023-06-24T11:24:47;4.78;;;2.55;;
44120;SDS011;29783;52.504;13.478;2023-06-24T11:27:13;4.80;;;2.90;;
44120;SDS011;29783;52.504;13.478;2023-06-24T11:29:39;4.82;;;2.80;;
44120;SDS011;29783;52.504;13.478;2023-06-24T11:32:09;5.00;;;2.72;;
44120;SDS011;29783;52.504;13.478;2023-06-24T11:34:37;8.88;;;2.90;;
44120;SDS011;29783;52.504;13.478;2023-06-24T11:37:14;3.97;;;2.78;;
44120;SDS011;29783;52.504;13.478;2023-06-24T11:39:40;7.28;;;2.83;;
44120;SDS011;29783;52.504;13.478;2023-06-24T11:42:07;7.88;;;2.75;;
44120;SDS011;29783;52.504;13.478;2023-06-24T11:44:34;8.48;;;2.50;;
44120;SDS011;29783;52.504;13.478;2023-06-24T11:47:06;4.15;;;2.70;;
44120;SDS011;29783;52.504;13.478;2023-06-24T11:49:47;5.20;;;2.78;;
44120;SDS011;29783;52.504;13.478;2023-06-24T11:52:13;7.00;;;2.58;;
44120;SDS011;29783;52.504;13.478;2023-06-24T11:54:42;4.93;;;2.90;;
44120;SDS011;29783;52.504;13.478;2023-06-24T11:57:08;7.72;;;3.30;;
44120;SDS011;29783;52.504;13.478;2023-06-24T11:59:34;6.28;;;3.10;;
44120;SDS011;29783;52.504;13.478;2023-06-24T12:02:00;4.82;;;3.17;;
44120;SDS011;29783;52.504;13.478;2023-06-24T12:04:31;7.75;;;2.92;;
44120;SDS011;29783;52.504;13.478;2023-06-24T12:06:58;5.20;;;2.80;;
44120;SDS011;29783;52.504;13.478;2023-06-24T12:09:24;5.28;;;2.92;;
44120;SDS011;29783;52.504;13.478;2023-06-24T12:11:51;4.07;;;3.17;;
44120;SDS011;29783;52.504;13.478;2023-06-24T12:14:18;5.80;;;2.83;;
44120;SDS011;29783;52.504;13.478;2023-06-24T12:16:44;6.35;;;2.80;;
44120;SDS011;29783;52.504;13.478;2023-06-24T12:19:10;3.92;;;2.35;;
44120;SDS011;29783;52.504;13.478;2023-06-24T12:21:36;10.93;;;2.95;;
44120;SDS011;29783;52.504;13.478;2023-06-24T12:24:03;5.75;;;2.85;;
44120;SDS011;29783;52.504;13.478;2023-06-24T12:26:29;5.10;;;2.90;;
44120;SDS011;29783;52.504;13.478;2023-06-24T12:28:55;7.00;;;2.38;;
44120;SDS011;29783;52.504;13.478;2023-06-24T12:31:21;3.85;;;2.50;;
44120;SDS011;29783;52.504;13.478;2023-06-24T12:33:47;8.70;;;2.90;;
44120;SDS011;29783;52.504;13.478;2023-06-24T12:36:13;9.73;;;2.50;;
44120;SDS011;29783;52.504;13.478;2023-06-24T12:38:39;7.20;;;3.05;;
44120;SDS011;29783;52.504;13.478;2023-06-24T12:41:06;7.00;;;2.55;;
44120;SDS011;29783;52.504;13.478;2023-06-24T12:43:32;4.07;;;2.40;;
44120;SDS011;29783;52.504;13.478;2023-06-24T12:45:58;6.90;;;2.97;;
44120;SDS011;29783;52.504;13.478;2023-06-24T12:48:24;7.53;;;2.45;;
44120;SDS011;29783;52.504;13.478;2023-06-24T12:50:50;4.13;;;2.65;;
44120;SDS011;29783;52.504;13.478;2023-06-24T12:53:20;4.07;;;2.75;;
44120;SDS011;29783;52.504;13.478;2023-06-24T12:55:45;5.90;;;3.30;;
44120;SDS011;29783;52.504;13.478;2023-06-24T12:58:13;4.70;;;2.60;;
44120;SDS011;29783;52.504;13.478;2023-06-24T13:00:48;4.88;;;2.58;;
44120;SDS011;29783;52.504;13.478;2023-06-24T13:03:15;8.38;;;2.53;;
44120;SDS011;29783;52.504;13.478;2023-06-24T13:05:40;5.43;;;2.60;;
44120;SDS011;29783;52.504;13.478;2023-06-24T13:08:06;9.75;;;2.80;;
44120;SDS011;29783;52.504;13.478;2023-06-24T13:10:35;4.00;;;2.70;;
44120;SDS011;29783;52.504;13.478;2023-06-24T13:13:01;4.43;;;2.53;;
44120;SDS011;29783;52.504;13.478;2023-06-24T13:15:27;3.25;;;2.50;;
44120;SDS011;29783;52.504;13.478;2023-06-24T13:17:54;4.50;;;2.75;;
44120;SDS011;29783;52.504;13.478;2023-06-24T13:20:20;4.95;;;2.28;;
44120;SDS011;29783;52.504;13.478;2023-06-24T13:22:45;4.47;;;2.80;;
44120;SDS011;29783;52.504;13.478;2023-06-24T13:25:11;3.85;;;2.72;;
44120;SDS011;29783;52.504;13.478;2023-06-24T13:27:36;12.07;;;2.75;;
44120;SDS011;29783;52.504;13.478;2023-06-24T13:30:02;5.28;;;2.85;;
44120;SDS011;29783;52.504;13.478;2023-06-24T13:32:29;6.82;;;2.75;;
44120;SDS011;29783;52.504;13.478;2023-06-24T13:34:55;6.63;;;2.65;;
44120;SDS011;29783;52.504;13.478;2023-06-24T13:37:20;3.88;;;2.80;;
44120;SDS011;29783;52.504;13.478;2023-06-24T13:39:46;3.20;;;2.38;;
44120;SDS011;29783;52.504;13.478;2023-06-24T13:42:12;12.15;;;2.80;;
44120;SDS011;29783;52.504;13.478;2023-06-24T13:44:38;3.55;;;2.65;;
44120;SDS011;29783;52.504;13.478;2023-06-24T13:52:21;13.07;;;2.63;;
44120;SDS011;29783;52.504;13.478;2023-06-24T13:54:46;4.55;;;2.92;;
44120;SDS011;29783;52.504;13.478;2023-06-24T13:57:12;14.35;;;2.65;;
44120;SDS011;29783;52.504;13.478;2023-06-24T13:59:38;4.15;;;2.42;;
44120;SDS011;29783;52.504;13.478;2023-06-24T14:02:04;5.28;;;2.58;;
44120;SDS011;29783;52.504;13.478;2023-06-24T14:04:30;6.68;;;2.72;;
44120;SDS011;29783;52.504;13.478;2023-06-24T14:06:55;12.70;;;2.72;;
44120;SDS011;29783;52.504;13.478;2023-06-24T14:09:21;9.20;;;2.63;;
44120;SDS011;29783;52.504;13.478;2023-06-24T14:11:47;6.30;;;2.25;;
44120;SDS011;29783;52.504;13.478;2023-06-24T14:14:12;6.10;;;2.78;;
44120;SDS011;29783;52.504;13.478;2023-06-24T14:16:38;3.22;;;2.50;;
44120;SDS011;29783;52.504;13.478;2023-06-24T14:19:03;5.10;;;2.60;;
44120;SDS011;29783;52.504;13.478;2023-06-24T14:21:29;6.35;;;2.60;;
44120;SDS011;29783;52.504;13.478;2023-06-24T14:23:56;6.32;;;2.30;;
44120;SDS011;29783;52.504;13.478;2023-06-24T14:26:22;4.55;;;2.50;;
44120;SDS011;29783;52.504;13.478;2023-06-24T14:28:48;5.82;;;2.90;;
44120;SDS011;29783;52.504;13.478;2023-06-24T14:31:14;7.88;;;3.63;;
44120;SDS011;29783;52.504;13.478;2023-06-24T14:33:40;8.27;;;2.47;;
44120;SDS011;29783;52.504;13.478;2023-06-24T14:36:05;3.45;;;2.28;;
44120;SDS011;29783;52.504;13.478;2023-06-24T14:38:31;3.38;;;2.55;;
44120;SDS011;29783;52.504;13.478;2023-06-24T14:40:57;5.10;;;2.65;;
44120;SDS011;29783;52.504;13.478;2023-06-24T14:43:22;5.60;;;2.70;;
44120;SDS011;29783;52.504;13.478;2023-06-24T14:45:48;7.10;;;2.58;;